createdAt,value
2023-03-15T00:02:16.448Z,5.51
2023-03-15T00:05:18.008Z,5.46
2023-03-15T00:08:21.762Z,5.54
2023-03-15T00:11:23.175Z,4.94
2023-03-15T00:14:24.682Z,4.97
2023-03-15T00:17:26.175Z,5.39
2023-03-15T00:20:27.579Z,5.36
2023-03-15T00:23:28.978Z,5.47
2023-03-15T00:26:30.383Z,5.14
2023-03-15T00:29:32.624Z,4.73
2023-03-15T00:32:34.024Z,4.53
2023-03-15T00:35:45.446Z,5.14
2023-03-15T00:38:46.952Z,5.15
2023-03-15T00:41:48.424Z,4.99
2023-03-15T00:44:50.538Z,4.70
2023-03-15T00:47:54.028Z,5.04
2023-03-15T00:51:06.276Z,5.31
2023-03-15T00:54:07.720Z,5.39
2023-03-15T00:57:09.229Z,5.49
2023-03-15T01:00:15.196Z,5.48
2023-03-15T01:03:16.716Z,5.45
2023-03-15T01:06:21.166Z,5.33
2023-03-15T01:09:23.027Z,5.15
2023-03-15T01:12:24.507Z,5.21
2023-03-15T01:15:26.261Z,5.24
2023-03-15T01:18:27.902Z,5.05
2023-03-15T01:21:29.453Z,4.85
2023-03-15T01:24:30.887Z,4.64
2023-03-15T01:27:32.385Z,4.40
2023-03-15T01:30:33.992Z,4.25
2023-03-15T01:33:35.554Z,4.13
2023-03-15T01:36:36.986Z,4.12
2023-03-15T01:39:38.445Z,3.96
2023-03-15T01:43:04.239Z,4.13
2023-03-15T01:46:19.655Z,4.00
2023-03-15T01:49:31.866Z,4.19
2023-03-15T01:52:38.983Z,4.48
2023-03-15T01:55:40.970Z,4.23
2023-03-15T01:58:48.101Z,3.86
2023-03-15T02:01:50.801Z,3.87
2023-03-15T02:04:59.055Z,3.70
2023-03-15T02:08:02.445Z,3.56
2023-03-15T02:11:07.405Z,3.44
2023-03-15T02:14:12.064Z,3.51
2023-03-15T02:17:15.466Z,3.89
2023-03-15T02:20:27.301Z,3.98
2023-03-15T02:23:29.075Z,3.80
2023-03-15T02:26:51.220Z,3.76
2023-03-15T02:29:53.581Z,3.85
2023-03-15T02:32:57.648Z,3.36
2023-03-15T02:36:11.417Z,3.64
2023-03-15T02:39:18.406Z,3.43
2023-03-15T02:42:20.610Z,3.10
2023-03-15T02:45:25.304Z,3.01
2023-03-15T02:48:27.037Z,3.00
2023-03-15T02:51:29.610Z,3.02
2023-03-15T02:54:34.279Z,2.99
2023-03-15T02:57:35.963Z,2.90
2023-03-15T03:00:37.515Z,2.84
2023-03-15T03:03:41.045Z,3.15
2023-03-15T03:06:44.260Z,2.93
2023-03-15T03:09:49.940Z,3.07
2023-03-15T03:12:53.587Z,3.01
2023-03-15T03:16:00.798Z,2.80
2023-03-15T03:19:05.461Z,2.85
2023-03-15T03:22:08.151Z,2.66
2023-03-15T03:25:12.424Z,2.52
2023-03-15T03:28:14.503Z,2.59
2023-03-15T03:31:18.670Z,2.39
2023-03-15T03:34:20.754Z,2.29
2023-03-15T03:37:22.245Z,2.34
2023-03-15T03:40:29.933Z,2.31
2023-03-15T03:43:31.330Z,2.30
2023-03-15T03:46:33.568Z,2.12
2023-03-15T03:49:35.411Z,2.30
2023-03-15T03:52:36.886Z,2.23
2023-03-15T03:55:46.716Z,2.30
2023-03-15T03:58:52.901Z,2.08
2023-03-15T04:01:59.939Z,2.11
2023-03-15T04:05:02.083Z,2.22
2023-03-15T04:08:04.131Z,2.35
2023-03-15T04:11:11.030Z,2.34
2023-03-15T04:14:14.841Z,2.14
2023-03-15T04:17:18.557Z,2.18
2023-03-15T04:20:20.407Z,2.22
2023-03-15T04:23:23.262Z,2.07
2023-03-15T04:26:34.755Z,2.12
2023-03-15T04:29:58.395Z,2.30
2023-03-15T04:33:18.648Z,2.33
2023-03-15T04:36:33.873Z,2.22
2023-03-15T04:39:47.764Z,1.96
2023-03-15T04:42:58.422Z,1.88
2023-03-15T04:46:20.571Z,1.98
2023-03-15T04:49:39.104Z,2.04
2023-03-15T04:52:51.139Z,2.07
2023-03-15T04:56:18.659Z,1.87
2023-03-15T04:59:42.258Z,1.99
2023-03-15T05:03:09.741Z,2.00
2023-03-15T05:06:21.220Z,1.92
2023-03-15T05:09:41.862Z,1.91
2023-03-15T05:12:58.485Z,2.13
2023-03-15T05:16:11.086Z,1.97
2023-03-15T05:19:23.594Z,1.84
2023-03-15T05:22:36.143Z,1.79
2023-03-15T05:25:56.294Z,1.72
2023-03-15T05:29:21.924Z,1.62
2023-03-15T05:32:39.937Z,1.57
2023-03-15T05:36:07.798Z,1.64
2023-03-15T05:39:35.297Z,1.66
2023-03-15T05:42:55.942Z,1.65
2023-03-15T05:46:31.857Z,1.70
2023-03-15T05:49:33.299Z,1.70
2023-03-15T05:53:03.958Z,1.64
2023-03-15T05:56:21.834Z,1.77
2023-03-15T05:59:33.119Z,1.71
2023-03-15T06:02:48.800Z,1.63
2023-03-15T06:06:03.397Z,1.64
2023-03-15T06:09:11.285Z,1.69
2023-03-15T06:12:13.555Z,1.85
2023-03-15T06:15:16.313Z,1.76
2023-03-15T06:18:18.944Z,1.75
2023-03-15T06:21:22.976Z,1.83
2023-03-15T06:24:25.111Z,1.89
2023-03-15T06:27:27.241Z,1.93
2023-03-15T06:30:31.383Z,2.14
2023-03-15T06:33:35.268Z,2.22
2023-03-15T06:36:36.990Z,2.08
2023-03-15T06:39:38.440Z,2.26
2023-03-15T06:42:41.586Z,2.16
2023-03-15T06:45:46.554Z,2.06
2023-03-15T06:48:48.178Z,2.10
2023-03-15T06:51:50.532Z,1.97
2023-03-15T06:54:52.013Z,1.99
2023-03-15T06:57:53.503Z,2.42
2023-03-15T07:00:54.943Z,2.68
2023-03-15T07:03:56.477Z,2.74
2023-03-15T07:06:57.902Z,2.60
2023-03-15T07:09:59.349Z,2.46
2023-03-15T07:13:00.852Z,2.48
2023-03-15T07:16:02.377Z,2.96
2023-03-15T07:19:03.947Z,3.00
2023-03-15T07:22:05.430Z,2.96
2023-03-15T07:25:07.481Z,3.08
2023-03-15T07:28:09.011Z,3.08
2023-03-15T07:31:11.494Z,3.56
2023-03-15T07:34:12.990Z,3.29
2023-03-15T07:37:14.408Z,3.68
2023-03-15T07:40:16.219Z,3.60
2023-03-15T07:43:18.765Z,3.74
2023-03-15T07:46:23.883Z,3.94
2023-03-15T07:49:25.361Z,4.16
2023-03-15T07:52:26.780Z,4.14
2023-03-15T07:55:28.233Z,4.35
2023-03-15T07:58:29.723Z,4.28
2023-03-15T08:01:31.307Z,4.45
2023-03-15T08:04:35.043Z,4.47
2023-03-15T08:07:37.248Z,4.95
2023-03-15T08:10:38.670Z,4.98
2023-03-15T08:13:41.448Z,4.87
2023-03-15T08:16:42.963Z,5.23
2023-03-15T08:19:44.872Z,4.95
2023-03-15T08:22:51.402Z,5.39
2023-03-15T08:25:52.966Z,5.80
2023-03-15T08:28:54.380Z,5.64
2023-03-15T08:31:55.871Z,6.11
2023-03-15T08:34:57.561Z,6.06
2023-03-15T08:37:58.975Z,6.22
2023-03-15T08:41:02.012Z,5.54
2023-03-15T08:44:03.501Z,6.34
2023-03-15T08:47:05.231Z,6.33
2023-03-15T08:50:11.551Z,6.73
2023-03-15T08:53:13.011Z,7.18
2023-03-15T08:56:14.536Z,7.45
2023-03-15T08:59:29.018Z,7.30
2023-03-15T09:02:32.573Z,7.47
2023-03-15T09:05:34.238Z,7.42
2023-03-15T09:08:35.775Z,7.17
2023-03-15T09:11:37.209Z,7.94
2023-03-15T09:14:38.647Z,8.41
2023-03-15T09:17:40.840Z,8.03
2023-03-15T09:20:42.243Z,7.62
2023-03-15T09:23:43.743Z,6.82
2023-03-15T09:26:45.681Z,8.10
2023-03-15T09:29:47.083Z,8.78
2023-03-15T09:32:49.017Z,8.27
2023-03-15T09:35:52.568Z,8.24
2023-03-15T09:38:54.000Z,8.87
2023-03-15T09:41:58.692Z,7.86
2023-03-15T09:45:19.092Z,8.13
2023-03-15T09:48:27.544Z,7.77
2023-03-15T09:51:48.149Z,8.85
2023-03-15T09:54:59.852Z,9.07
2023-03-15T09:58:21.371Z,8.86
2023-03-15T10:01:29.074Z,9.20
2023-03-15T10:04:40.616Z,9.04
2023-03-15T10:07:42.174Z,8.86
2023-03-15T10:11:08.720Z,9.60
2023-03-15T10:14:35.523Z,8.92
2023-03-15T10:17:55.547Z,9.67
2023-03-15T10:21:05.565Z,8.52
2023-03-15T10:24:50.438Z,7.70
2023-03-15T10:28:09.373Z,8.33
2023-03-15T10:31:22.266Z,8.33
2023-03-15T10:34:27.435Z,9.23
2023-03-15T10:37:28.852Z,9.09
2023-03-15T10:40:51.012Z,9.43
2023-03-15T10:44:01.737Z,10.71
2023-03-15T10:47:22.155Z,9.52
2023-03-15T10:50:31.735Z,9.07
2023-03-15T10:53:33.723Z,8.64
2023-03-15T10:56:45.323Z,9.94
2023-03-15T11:00:06.568Z,9.39
2023-03-15T11:03:20.641Z,9.66
2023-03-15T11:06:27.031Z,9.61
2023-03-15T11:09:42.062Z,10.69
2023-03-15T11:12:43.499Z,12.44
2023-03-15T11:16:19.018Z,12.58
2023-03-15T11:19:25.835Z,12.17
2023-03-15T11:22:27.336Z,11.59
2023-03-15T11:25:33.762Z,10.41
2023-03-15T11:28:37.388Z,11.95
2023-03-15T11:31:39.312Z,11.83
2023-03-15T11:34:57.931Z,11.01
2023-03-15T11:38:15.608Z,10.19
2023-03-15T11:41:31.081Z,10.00
2023-03-15T11:44:43.766Z,9.90
2023-03-15T11:47:54.721Z,9.92
2023-03-15T11:50:58.538Z,9.31
2023-03-15T11:54:20.985Z,9.45
2023-03-15T11:57:43.959Z,9.25
2023-03-15T12:00:51.420Z,9.16
2023-03-15T12:04:25.230Z,9.26
2023-03-15T12:07:35.323Z,9.33
2023-03-15T12:10:46.694Z,8.88
2023-03-15T12:13:57.310Z,10.71
2023-03-15T12:17:23.949Z,10.55
2023-03-15T12:20:41.119Z,9.90
2023-03-15T12:24:05.259Z,9.93
2023-03-15T12:27:16.961Z,11.14
2023-03-15T12:30:30.666Z,10.84
2023-03-15T12:33:43.302Z,10.33
2023-03-15T12:36:48.460Z,9.76
2023-03-15T12:40:23.691Z,9.37
2023-03-15T12:43:44.458Z,9.14
2023-03-15T12:46:45.863Z,9.55
2023-03-15T12:49:47.400Z,9.74
2023-03-15T12:52:53.505Z,9.39
2023-03-15T12:56:06.168Z,9.44
2023-03-15T12:59:22.064Z,9.75
2023-03-15T13:02:41.723Z,9.29
2023-03-15T13:06:04.298Z,8.98
2023-03-15T13:09:09.019Z,9.32
2023-03-15T13:12:43.742Z,9.09
2023-03-15T13:16:05.269Z,9.39
2023-03-15T13:19:22.995Z,9.42
2023-03-15T13:22:32.454Z,9.21
2023-03-15T13:25:58.439Z,9.31
2023-03-15T13:29:06.204Z,9.04
2023-03-15T13:32:10.536Z,8.57
2023-03-15T13:35:13.933Z,8.64
2023-03-15T13:38:28.248Z,8.08
2023-03-15T13:41:31.000Z,7.97
2023-03-15T13:44:33.993Z,7.84
2023-03-15T13:47:35.641Z,8.04
2023-03-15T13:50:37.941Z,8.23
2023-03-15T13:53:49.390Z,8.19
2023-03-15T13:57:12.844Z,8.05
2023-03-15T14:00:19.013Z,8.05
2023-03-15T14:03:22.458Z,8.00
2023-03-15T14:06:26.078Z,8.09
2023-03-15T14:09:31.191Z,7.88
2023-03-15T14:12:32.841Z,8.00
2023-03-15T14:15:44.097Z,7.81
2023-03-15T14:18:45.606Z,7.73
2023-03-15T14:21:53.520Z,7.34
2023-03-15T14:24:55.183Z,7.12
2023-03-15T14:28:00.874Z,7.08
2023-03-15T14:31:03.075Z,7.12
2023-03-15T14:34:23.794Z,7.11
2023-03-15T14:37:34.914Z,7.22
2023-03-15T14:40:39.120Z,7.28
2023-03-15T14:43:40.561Z,7.44
2023-03-15T14:46:42.697Z,7.55
2023-03-15T14:49:44.313Z,7.58
2023-03-15T14:52:46.969Z,7.97
2023-03-15T14:55:48.377Z,7.84
2023-03-15T14:58:50.007Z,8.13
2023-03-15T15:01:55.017Z,8.02
2023-03-15T15:04:56.643Z,8.15
2023-03-15T15:08:09.326Z,7.96
2023-03-15T15:11:11.156Z,7.05
2023-03-15T15:14:15.676Z,7.55
2023-03-15T15:17:17.122Z,7.63
2023-03-15T15:20:18.629Z,7.62
2023-03-15T15:23:23.398Z,7.55
2023-03-15T15:26:27.567Z,7.75
2023-03-15T15:29:29.434Z,7.36
2023-03-15T15:32:33.866Z,7.89
2023-03-15T15:35:35.471Z,7.75
2023-03-15T15:38:38.296Z,7.77
2023-03-15T15:41:40.210Z,7.79
2023-03-15T15:44:41.619Z,7.70
2023-03-15T15:47:43.427Z,7.80
2023-03-15T15:50:44.846Z,7.89
2023-03-15T15:53:46.900Z,7.89
2023-03-15T15:56:52.097Z,8.06
2023-03-15T15:59:53.864Z,8.00
2023-03-15T16:02:56.893Z,7.84
2023-03-15T16:05:58.526Z,7.90
2023-03-15T16:09:00.572Z,8.12
2023-03-15T16:12:02.180Z,8.01
2023-03-15T16:15:03.977Z,7.86
2023-03-15T16:18:12.306Z,8.13
2023-03-15T16:21:17.720Z,8.00
2023-03-15T16:24:23.011Z,8.01
2023-03-15T16:27:27.174Z,7.96
2023-03-15T16:30:31.296Z,8.03
2023-03-15T16:33:34.690Z,7.95
2023-03-15T16:36:36.956Z,7.82
2023-03-15T16:39:38.417Z,7.89
2023-03-15T16:42:39.843Z,7.85
2023-03-15T16:45:41.239Z,7.68
2023-03-15T16:48:42.861Z,7.76
2023-03-15T16:51:51.807Z,7.55
2023-03-15T16:54:53.202Z,7.42
2023-03-15T16:57:55.368Z,7.14
2023-03-15T17:00:56.793Z,7.21
2023-03-15T17:03:58.344Z,7.26
2023-03-15T17:06:59.797Z,7.45
2023-03-15T17:10:10.131Z,7.50
2023-03-15T17:13:14.847Z,7.53
2023-03-15T17:16:16.891Z,7.48
2023-03-15T17:19:18.538Z,7.50
2023-03-15T17:22:20.443Z,7.31
2023-03-15T17:25:22.094Z,7.33
2023-03-15T17:28:24.082Z,7.28
2023-03-15T17:31:26.046Z,7.11
2023-03-15T17:34:27.492Z,7.15
2023-03-15T17:37:33.832Z,6.92
2023-03-15T17:40:36.159Z,7.16
2023-03-15T17:43:37.684Z,7.33
2023-03-15T17:46:39.212Z,7.25
2023-03-15T17:49:40.775Z,7.12
2023-03-15T17:52:44.234Z,6.79
2023-03-15T17:55:47.830Z,6.94
2023-03-15T17:58:49.398Z,7.08
2023-03-15T18:01:51.254Z,6.96
2023-03-15T18:04:52.749Z,7.11
2023-03-15T18:08:01.352Z,7.07
2023-03-15T18:11:02.785Z,6.99
2023-03-15T18:14:04.480Z,6.74
2023-03-15T18:17:05.974Z,6.76
2023-03-15T18:20:10.083Z,6.67
2023-03-15T18:23:14.223Z,6.80
2023-03-15T18:26:16.511Z,6.54
2023-03-15T18:29:17.840Z,6.57
2023-03-15T18:32:19.635Z,6.49
2023-03-15T18:35:27.465Z,6.31
2023-03-15T18:38:29.781Z,6.31
2023-03-15T18:41:31.199Z,6.45
2023-03-15T18:44:32.899Z,6.31
2023-03-15T18:47:34.310Z,6.34
2023-03-15T18:50:35.727Z,6.34
2023-03-15T18:53:37.149Z,6.52
2023-03-15T18:56:38.628Z,6.66
2023-03-15T18:59:40.037Z,6.39
2023-03-15T19:02:43.016Z,6.15
2023-03-15T19:05:44.464Z,5.82
2023-03-15T19:08:45.931Z,5.92
2023-03-15T19:11:47.350Z,6.02
2023-03-15T19:14:48.902Z,6.00
2023-03-15T19:17:54.369Z,5.90
2023-03-15T19:20:55.816Z,6.00
2023-03-15T19:23:58.340Z,6.01
2023-03-15T19:27:00.033Z,6.26
2023-03-15T19:30:02.010Z,6.07
2023-03-15T19:33:03.642Z,5.86
2023-03-15T19:36:05.315Z,6.25
2023-03-15T19:39:10.307Z,6.17
2023-03-15T19:42:11.709Z,6.20
2023-03-15T19:45:13.531Z,5.93
2023-03-15T19:48:16.553Z,5.89
2023-03-15T19:51:18.073Z,5.89
2023-03-15T19:54:19.528Z,5.76
2023-03-15T19:57:21.244Z,5.69
2023-03-15T20:00:23.368Z,5.70
2023-03-15T20:03:25.121Z,5.87
2023-03-15T20:06:26.702Z,5.72
2023-03-15T20:09:29.056Z,5.67
2023-03-15T20:12:32.149Z,5.58
2023-03-15T20:15:33.619Z,5.78
2023-03-15T20:18:35.254Z,5.63
2023-03-15T20:21:37.091Z,5.48
2023-03-15T20:24:40.255Z,5.80
2023-03-15T20:27:41.995Z,5.81
2023-03-15T20:30:44.383Z,5.82
2023-03-15T20:33:48.101Z,5.64
2023-03-15T20:36:49.517Z,5.70
2023-03-15T20:39:51.114Z,5.42
2023-03-15T20:42:53.016Z,5.39
2023-03-15T20:45:59.659Z,5.24
2023-03-15T20:49:01.802Z,5.34
2023-03-15T20:52:05.078Z,5.04
2023-03-15T20:55:07.989Z,5.01
2023-03-15T20:58:09.423Z,5.28
2023-03-15T21:01:15.009Z,5.41
2023-03-15T21:04:16.849Z,5.15
2023-03-15T21:07:18.345Z,5.12
2023-03-15T21:10:20.217Z,4.74
2023-03-15T21:13:22.170Z,4.77
2023-03-15T21:16:26.065Z,4.75
2023-03-15T21:19:28.689Z,4.65
2023-03-15T21:22:30.045Z,4.82
2023-03-15T21:25:32.506Z,4.82
2023-03-15T21:28:34.317Z,4.96
2023-03-15T21:31:36.548Z,5.04
2023-03-15T21:34:38.133Z,4.95
2023-03-15T21:37:40.098Z,4.52
2023-03-15T21:40:46.228Z,4.16
2023-03-15T21:43:47.664Z,4.47
2023-03-15T21:46:49.233Z,4.45
2023-03-15T21:49:53.994Z,4.56
2023-03-15T21:52:55.518Z,4.58
2023-03-15T21:55:58.163Z,4.67
2023-03-15T21:58:59.571Z,4.63
2023-03-15T22:02:01.657Z,4.60
2023-03-15T22:05:03.945Z,4.61
2023-03-15T22:08:05.571Z,4.64
2023-03-15T22:11:07.424Z,4.40
2023-03-15T22:14:08.870Z,4.44
2023-03-15T22:17:10.374Z,4.30
2023-03-15T22:20:16.593Z,4.52
2023-03-15T22:23:18.713Z,4.31
2023-03-15T22:26:20.145Z,4.36
2023-03-15T22:29:21.530Z,4.25
2023-03-15T22:32:23.002Z,4.32
2023-03-15T22:35:25.758Z,4.37
2023-03-15T22:38:27.464Z,4.30
2023-03-15T22:41:29.010Z,4.19
2023-03-15T22:44:30.681Z,4.27
2023-03-15T22:47:32.408Z,4.16
2023-03-15T22:50:33.876Z,4.25
2023-03-15T22:53:35.557Z,4.24
2023-03-15T22:56:39.030Z,3.91
2023-03-15T22:59:42.006Z,3.95
2023-03-15T23:02:44.519Z,3.62
2023-03-15T23:05:46.559Z,3.97
2023-03-15T23:08:47.948Z,4.02
2023-03-15T23:11:49.460Z,4.01
2023-03-15T23:14:51.939Z,3.95
2023-03-15T23:17:53.843Z,3.77
2023-03-15T23:21:04.449Z,3.83
2023-03-15T23:24:07.234Z,3.80
2023-03-15T23:27:08.840Z,3.74
2023-03-15T23:30:10.932Z,3.70
2023-03-15T23:33:12.463Z,3.32
2023-03-15T23:36:14.390Z,3.31
2023-03-15T23:39:16.598Z,3.51
2023-03-15T23:42:18.192Z,3.75
2023-03-15T23:45:19.766Z,3.62
2023-03-15T23:48:22.148Z,3.64
2023-03-15T23:51:23.734Z,3.65
2023-03-15T23:54:25.304Z,3.61
2023-03-15T23:57:27.473Z,3.68
